Time;durP1;ratioP1;P1;durP2;ratioP2;P2;SDS_P1;SDS_P2;PMS_P1;PMS_P2;Temp;Humidity;BMP_temperature;BMP_pressure;BME280_temperature;BME280_humidity;BME280_pressure;Samples;Min_cycle;Max_cycle;Signal;HPM_P1;HPM_P2
2022/03/21 00:01:56;;;;;;;7.95;4.72;;;6.40;36.60;;;;;;5114268;28;20094;-20
2022/03/21 00:04:23;;;;;;;9.35;5.65;;;6.30;36.60;;;;;;5113798;28;20098;-20
2022/03/21 00:06:50;;;;;;;7.75;4.05;;;6.30;36.50;;;;;;5113601;28;20031;-20
2022/03/21 00:09:16;;;;;;;6.22;3.88;;;6.30;36.30;;;;;;5113550;28;20031;-20
2022/03/21 00:11:42;;;;;;;8.93;5.00;;;6.30;36.40;;;;;;5113886;28;20020;-20
2022/03/21 00:14:10;;;;;;;8.80;4.05;;;6.20;36.40;;;;;;5113565;28;20024;-20
2022/03/21 00:16:37;;;;;;;10.55;5.93;;;6.20;36.30;;;;;;5113062;28;20564;-20
2022/03/21 00:19:04;;;;;;;7.55;4.55;;;6.20;36.40;;;;;;5113869;28;20028;-20
2022/03/21 00:21:30;;;;;;;8.75;5.28;;;6.10;36.40;;;;;;5113405;28;20036;-20
2022/03/21 00:23:56;;;;;;;8.27;4.18;;;6.10;36.60;;;;;;5113468;28;20026;-20
2022/03/21 00:26:22;;;;;;;8.80;5.30;;;6.00;36.60;;;;;;5113283;28;20114;-21
2022/03/21 00:28:49;;;;;;;5.88;3.10;;;6.00;36.60;;;;;;5114679;28;20126;-20
2022/03/21 00:31:16;;;;;;;5.05;2.95;;;5.90;36.50;;;;;;5117660;28;20032;-20
2022/03/21 00:33:42;;;;;;;5.88;3.30;;;6.00;36.40;;;;;;5117913;28;20028;-20
2022/03/21 00:36:09;;;;;;;5.82;3.42;;;5.90;36.50;;;;;;5116696;28;20028;-20
2022/03/21 00:38:41;;;;;;;3.75;2.63;;;5.90;36.50;;;;;;5117594;27;20027;-20
2022/03/21 00:41:07;;;;;;;5.57;3.13;;;5.80;36.40;;;;;;5117430;28;20047;-20
2022/03/21 00:43:34;;;;;;;9.30;4.40;;;5.80;36.50;;;;;;5117590;28;20051;-20
2022/03/21 00:46:01;;;;;;;6.22;3.75;;;5.70;36.50;;;;;;5117657;28;20127;-20
2022/03/21 00:48:30;;;;;;;5.15;2.60;;;5.60;36.70;;;;;;5117110;28;20032;-20
2022/03/21 00:50:58;;;;;;;8.88;4.88;;;5.60;36.70;;;;;;5117203;28;20026;-20
2022/03/21 00:53:24;;;;;;;6.38;3.63;;;5.50;37.00;;;;;;5117494;28;20046;-20
2022/03/21 00:55:52;;;;;;;7.13;4.18;;;5.40;36.90;;;;;;5117481;28;20353;-20
2022/03/21 00:58:18;;;;;;;6.22;3.67;;;5.40;37.20;;;;;;5117097;28;20020;-21
2022/03/21 01:00:45;;;;;;;5.25;3.00;;;5.30;37.30;;;;;;5117349;28;20019;-20
2022/03/21 01:03:12;;;;;;;8.30;4.80;;;5.20;37.10;;;;;;5117271;28;20050;-20
2022/03/21 01:05:38;;;;;;;9.63;5.18;;;5.20;37.50;;;;;;5117095;28;20037;-20
2022/03/21 01:08:04;;;;;;;9.05;5.15;;;5.10;38.20;;;;;;5117253;28;20085;-20
2022/03/21 01:10:32;;;;;;;5.78;3.38;;;5.10;37.60;;;;;;5117043;28;20020;-21
2022/03/21 01:12:58;;;;;;;7.05;3.92;;;5.00;37.50;;;;;;5117201;28;20140;-20
2022/03/21 01:15:27;;;;;;;8.40;4.60;;;4.90;37.30;;;;;;5116889;28;20035;-20
2022/03/21 01:17:56;;;;;;;11.55;6.78;;;4.90;37.30;;;;;;5116744;28;20200;-20
2022/03/21 01:20:23;;;;;;;6.97;4.60;;;4.80;37.60;;;;;;5116521;28;20118;-20
2022/03/21 01:22:50;;;;;;;8.25;5.32;;;4.80;37.70;;;;;;5116892;28;20107;-20
2022/03/21 01:25:17;;;;;;;9.43;5.22;;;4.80;37.50;;;;;;5116621;28;20039;-20
2022/03/21 01:27:44;;;;;;;5.43;3.15;;;4.70;37.60;;;;;;5117205;28;20019;-21
2022/03/21 01:30:12;;;;;;;12.18;6.30;;;4.70;37.50;;;;;;5116786;28;20024;-20
2022/03/21 01:32:42;;;;;;;10.00;5.53;;;4.60;37.70;;;;;;5117336;28;20031;-20
2022/03/21 01:35:11;;;;;;;9.00;4.72;;;4.60;37.70;;;;;;5116403;28;20559;-20
2022/03/21 01:37:37;;;;;;;8.25;4.80;;;4.60;37.70;;;;;;5116371;28;20023;-20
2022/03/21 01:40:04;;;;;;;8.15;4.68;;;4.50;37.70;;;;;;5114849;28;20031;-20
2022/03/21 01:42:30;;;;;;;6.32;3.28;;;4.50;37.60;;;;;;5116001;28;20479;-20
2022/03/21 01:44:57;;;;;;;8.82;4.53;;;4.50;37.70;;;;;;5116115;28;20387;-21
2022/03/21 01:47:24;;;;;;;10.23;4.13;;;4.50;37.80;;;;;;5115429;28;20422;-20
2022/03/21 01:49:50;;;;;;;8.88;4.18;;;4.40;38.10;;;;;;5116122;28;20027;-20
2022/03/21 01:52:18;;;;;;;8.77;5.07;;;4.40;37.90;;;;;;5115883;28;20472;-21
2022/03/21 01:57:28;;;;;;;9.73;4.95;;;4.40;37.70;;;;;;5116517;28;20073;-20
2022/03/21 01:59:55;;;;;;;7.25;4.28;;;4.40;37.80;;;;;;5115877;28;20027;-20
2022/03/21 02:02:21;;;;;;;9.23;4.15;;;4.40;37.80;;;;;;5115663;28;20024;-20
2022/03/21 02:04:47;;;;;;;8.52;4.88;;;4.40;37.70;;;;;;5116475;28;20032;-20
2022/03/21 02:07:14;;;;;;;4.90;3.10;;;4.40;37.60;;;;;;5115272;28;20023;-20
2022/03/21 02:09:42;;;;;;;6.00;3.47;;;4.30;37.70;;;;;;5116083;28;20035;-20
2022/03/21 02:12:09;;;;;;;7.47;4.32;;;4.30;37.80;;;;;;5116063;28;20053;-20
2022/03/21 02:14:39;;;;;;;8.23;4.78;;;4.30;37.70;;;;;;5115417;28;20482;-20
2022/03/21 02:17:06;;;;;;;6.95;3.70;;;4.20;37.90;;;;;;5115732;28;20108;-20
2022/03/21 02:19:37;;;;;;;7.55;4.38;;;4.20;37.70;;;;;;5115620;28;20063;-20
2022/03/21 02:22:08;;;;;;;6.50;3.67;;;4.10;37.70;;;;;;5115477;27;20066;-20
2022/03/21 02:24:55;;;;;;;5.20;3.00;;;4.10;37.70;;;;;;5115343;28;20051;-20
2022/03/21 02:27:21;;;;;;;5.07;3.10;;;4.10;37.80;;;;;;5107825;28;20035;-20
2022/03/21 02:29:48;;;;;;;4.18;2.80;;;4.00;37.70;;;;;;5115356;28;20034;-21
2022/03/21 02:32:15;;;;;;;6.25;3.03;;;4.00;37.70;;;;;;5115854;28;20099;-21
2022/03/21 02:34:41;;;;;;;6.25;3.20;;;3.90;37.70;;;;;;5115150;28;20019;-21
2022/03/21 02:37:11;;;;;;;5.10;3.20;;;3.90;37.90;;;;;;5115587;28;20030;-20
2022/03/21 02:39:38;;;;;;;6.72;3.95;;;3.90;38.00;;;;;;5115755;28;20026;-20
2022/03/21 02:42:05;;;;;;;4.90;2.88;;;3.80;38.20;;;;;;5113844;28;20024;-20
2022/03/21 02:44:39;;;;;;;3.83;2.60;;;3.80;38.00;;;;;;5114773;28;20027;-21
2022/03/21 02:47:06;;;;;;;5.13;2.58;;;3.70;37.90;;;;;;5115964;28;20024;-20
2022/03/21 02:49:33;;;;;;;2.88;2.38;;;3.60;38.00;;;;;;5115206;28;20027;-20
2022/03/21 02:52:02;;;;;;;4.72;2.67;;;3.60;38.00;;;;;;5114301;28;20012;-20
2022/03/21 02:54:28;;;;;;;4.13;2.47;;;3.50;38.00;;;;;;5114629;28;20527;-21
2022/03/21 02:56:55;;;;;;;4.93;2.67;;;3.50;37.90;;;;;;5114859;28;20032;-20
2022/03/21 02:59:21;;;;;;;5.47;3.08;;;3.40;38.10;;;;;;5114933;28;20031;-20
2022/03/21 03:01:49;;;;;;;4.65;2.72;;;3.30;38.40;;;;;;5114790;28;20555;-20
2022/03/21 03:04:15;;;;;;;3.35;2.15;;;3.30;38.50;;;;;;5114569;28;20033;-20
2022/03/21 03:06:41;;;;;;;6.35;3.13;;;3.20;38.30;;;;;;5114620;28;20028;-20
2022/03/21 03:09:08;;;;;;;4.60;2.90;;;3.20;38.70;;;;;;5114861;28;20027;-20
2022/03/21 03:11:37;;;;;;;4.80;3.28;;;3.10;38.70;;;;;;5114807;28;20076;-20
2022/03/21 03:14:05;;;;;;;6.25;3.30;;;3.00;39.00;;;;;;5114445;28;20035;-20
2022/03/21 03:16:31;;;;;;;9.13;5.60;;;3.00;39.10;;;;;;5114247;28;20051;-20
2022/03/21 03:18:57;;;;;;;4.30;2.53;;;2.90;39.10;;;;;;5114724;28;20456;-20
2022/03/21 03:21:25;;;;;;;7.00;4.13;;;2.90;39.10;;;;;;5114491;28;20035;-20
2022/03/21 03:23:52;;;;;;;6.22;3.30;;;2.90;39.50;;;;;;5114644;28;20030;-20
2022/03/21 03:26:18;;;;;;;6.40;3.10;;;2.80;39.60;;;;;;5114683;28;20428;-21
2022/03/21 03:28:47;;;;;;;6.05;2.95;;;2.70;39.30;;;;;;5114412;28;20103;-20
2022/03/21 03:31:15;;;;;;;3.42;1.98;;;2.70;39.40;;;;;;5114513;28;20035;-21
2022/03/21 03:33:42;;;;;;;3.45;2.47;;;2.60;39.10;;;;;;5114338;28;20012;-20
2022/03/21 03:36:08;;;;;;;8.63;4.70;;;2.50;39.30;;;;;;5114076;28;20467;-20
2022/03/21 03:38:34;;;;;;;9.35;4.90;;;2.50;40.30;;;;;;5113834;28;20028;-20
2022/03/21 03:41:00;;;;;;;6.65;3.78;;;2.40;39.70;;;;;;5114315;28;20463;-20
2022/03/21 03:43:26;;;;;;;8.27;4.43;;;2.40;39.80;;;;;;5114205;28;20038;-20
2022/03/21 03:45:52;;;;;;;9.40;4.15;;;2.40;40.00;;;;;;5112756;28;20475;-20
2022/03/21 03:48:22;;;;;;;6.80;3.30;;;2.30;40.70;;;;;;5113996;28;20031;-20
2022/03/21 03:50:48;;;;;;;10.52;5.95;;;2.30;40.30;;;;;;5114141;28;20023;-20
2022/03/21 03:53:15;;;;;;;5.95;2.97;;;2.20;41.40;;;;;;5114142;28;20030;-20
2022/03/21 03:55:42;;;;;;;7.80;3.88;;;2.10;40.20;;;;;;5113871;28;20019;-20
2022/03/21 03:58:08;;;;;;;4.72;2.88;;;2.10;40.50;;;;;;5113822;28;20078;-20
2022/03/21 04:00:35;;;;;;;6.13;2.70;;;2.00;39.90;;;;;;5113535;28;20027;-20
2022/03/21 04:05:46;;;;;;;5.03;3.20;;;1.90;40.80;;;;;;5114359;28;20034;-20
2022/03/21 04:08:12;;;;;;;9.15;4.85;;;1.90;40.20;;;;;;5113846;28;20055;-22
2022/03/21 04:10:38;;;;;;;8.98;4.57;;;1.80;40.20;;;;;;5113594;28;20047;-20
2022/03/21 04:13:04;;;;;;;10.20;5.15;;;1.80;41.00;;;;;;5113920;28;20023;-20
2022/03/21 04:15:30;;;;;;;6.57;3.50;;;1.70;41.10;;;;;;5114161;28;20085;-20
2022/03/21 04:18:04;;;;;;;8.63;4.60;;;1.60;40.70;;;;;;5113934;28;20408;-20
2022/03/21 04:20:31;;;;;;;4.32;2.60;;;1.60;41.20;;;;;;5113304;28;20103;-20
2022/03/21 04:22:58;;;;;;;5.15;3.50;;;1.50;40.70;;;;;;5113397;28;20031;-20
2022/03/21 04:25:24;;;;;;;9.55;5.05;;;1.50;41.30;;;;;;5113787;28;20031;-20
2022/03/21 04:27:51;;;;;;;3.83;2.70;;;1.40;41.20;;;;;;5112259;28;20483;-20
2022/03/21 04:30:16;;;;;;;6.32;3.45;;;1.40;41.30;;;;;;5113147;28;20475;-21
2022/03/21 04:32:44;;;;;;;7.43;4.40;;;1.30;42.10;;;;;;5113351;28;20068;-20
2022/03/21 04:35:13;;;;;;;11.82;6.22;;;1.30;41.90;;;;;;5113724;28;20028;-20
2022/03/21 04:37:39;;;;;;;7.88;4.70;;;1.20;41.90;;;;;;5113360;28;20379;-20
2022/03/21 04:40:08;;;;;;;6.22;3.40;;;1.10;43.00;;;;;;5113663;28;20034;-20
2022/03/21 04:42:36;;;;;;;7.50;4.03;;;1.10;41.70;;;;;;5112969;28;20032;-20
2022/03/21 04:45:04;;;;;;;6.95;3.55;;;1.10;43.50;;;;;;5113289;28;20054;-21
2022/03/21 04:47:30;;;;;;;5.05;3.00;;;1.00;42.70;;;;;;5113143;28;20028;-20
2022/03/21 04:49:56;;;;;;;6.68;3.42;;;1.00;42.70;;;;;;5113247;28;20028;-20
2022/03/21 04:52:22;;;;;;;8.43;4.32;;;0.90;42.90;;;;;;5113156;28;20016;-21
2022/03/21 04:54:48;;;;;;;10.90;5.32;;;0.90;43.00;;;;;;5113526;28;20024;-20
2022/03/21 04:57:14;;;;;;;9.40;4.90;;;0.90;43.20;;;;;;5113486;28;20475;-20
2022/03/21 04:59:40;;;;;;;6.93;3.78;;;0.90;43.30;;;;;;5113020;28;20096;-20
2022/03/21 05:02:06;;;;;;;8.75;5.13;;;0.80;42.40;;;;;;5111882;28;20028;-20
2022/03/21 05:04:34;;;;;;;7.63;3.78;;;0.80;42.10;;;;;;5113307;28;20024;-20
2022/03/21 05:07:01;;;;;;;23.33;11.05;;;0.80;42.40;;;;;;5113424;28;20042;-20
2022/03/21 05:09:26;;;;;;;13.48;6.95;;;0.80;45.00;;;;;;5113404;28;20024;-20
2022/03/21 05:11:53;;;;;;;6.40;3.92;;;0.70;45.10;;;;;;5113110;28;20391;-20
2022/03/21 05:14:19;;;;;;;19.05;10.10;;;0.70;43.50;;;;;;5113462;28;20031;-20
2022/03/21 05:16:47;;;;;;;13.52;7.50;;;0.70;45.40;;;;;;5116606;28;20519;-20
2022/03/21 05:19:14;;;;;;;13.43;7.50;;;0.60;44.30;;;;;;5117625;28;20042;-20
2022/03/21 05:21:40;;;;;;;13.05;7.25;;;0.60;45.90;;;;;;5116958;28;20027;-20
2022/03/21 05:32:23;;;;;;;13.98;7.20;;;0.70;46.00;;;;;;5116767;28;20079;-20
2022/03/21 05:37:34;;;;;;;15.20;7.63;;;0.70;46.10;;;;;;5117372;28;20506;-20
2022/03/21 05:42:44;;;;;;;15.05;8.27;;;0.80;44.20;;;;;;5116669;28;20101;-20
2022/03/21 05:45:11;;;;;;;11.82;6.28;;;0.80;45.00;;;;;;5116285;27;20094;-20
2022/03/21 05:48:50;;;;;;;14.18;7.50;;;0.90;45.40;;;;;;5116513;28;20032;-20
2022/03/21 05:50:22;;;;;;;7.35;4.35;;;0.90;44.30;;;;;;5115881;28;20399;-20
2022/03/21 05:52:49;;;;;;;7.07;3.67;;;0.90;44.80;;;;;;5116467;28;20016;-20
2022/03/21 05:55:16;;;;;;;11.55;5.70;;;0.90;43.90;;;;;;5116412;28;20050;-20
2022/03/21 05:57:41;;;;;;;11.77;6.50;;;0.90;43.90;;;;;;5116040;28;20475;-20
2022/03/21 06:00:20;;;;;;;6.93;4.47;;;1.00;44.20;;;;;;5114994;28;20070;-20
2022/03/21 06:02:47;;;;;;;12.13;6.18;;;1.10;43.50;;;;;;5116224;28;20032;-20
2022/03/21 06:05:13;;;;;;;5.40;3.10;;;1.00;44.70;;;;;;5116306;28;20039;-20
2022/03/21 06:07:39;;;;;;;9.55;4.55;;;1.10;43.50;;;;;;5115852;28;20036;-20
2022/03/21 06:10:05;;;;;;;14.73;7.75;;;1.10;44.00;;;;;;5115837;28;20058;-20
2022/03/21 06:12:31;;;;;;;19.20;10.20;;;1.10;44.40;;;;;;5115818;27;20024;-20
2022/03/21 06:14:57;;;;;;;12.85;6.72;;;1.20;45.50;;;;;;5115627;28;20016;-20
2022/03/21 06:17:23;;;;;;;15.57;7.78;;;1.30;45.50;;;;;;5115431;28;20134;-19
2022/03/21 06:19:49;;;;;;;13.40;8.13;;;1.40;45.50;;;;;;5115960;28;20026;-20
2022/03/21 06:22:15;;;;;;;20.40;10.23;;;1.40;44.70;;;;;;5115519;27;20035;-19
2022/03/21 06:24:41;;;;;;;16.25;8.82;;;1.50;44.90;;;;;;5115832;28;20028;-20
2022/03/21 06:27:06;;;;;;;15.80;8.02;;;1.60;45.20;;;;;;5115934;28;20023;-19
2022/03/21 06:29:32;;;;;;;12.00;6.20;;;1.70;44.10;;;;;;5115690;28;20089;-20
2022/03/21 06:31:58;;;;;;;10.30;5.30;;;1.90;43.80;;;;;;5115346;28;20054;-19
2022/03/21 06:34:24;;;;;;;11.45;5.03;;;1.90;43.40;;;;;;5115457;28;20059;-20
2022/03/21 06:36:50;;;;;;;19.45;10.48;;;2.00;43.30;;;;;;5114027;28;20122;-20
2022/03/21 06:39:16;;;;;;;11.25;6.40;;;2.10;44.90;;;;;;5115578;28;20028;-19
2022/03/21 06:41:43;;;;;;;12.65;6.80;;;2.20;44.90;;;;;;5115038;28;20054;-20
2022/03/21 06:44:09;;;;;;;19.65;9.35;;;2.40;43.70;;;;;;5115034;28;20095;-20
2022/03/21 06:46:35;;;;;;;17.90;8.32;;;2.50;44.10;;;;;;5113756;28;20024;-19
2022/03/21 06:49:01;;;;;;;82.97;34.60;;;2.50;43.20;;;;;;5115025;28;20027;-20
2022/03/21 06:51:27;;;;;;;35.45;16.50;;;2.70;43.50;;;;;;5115242;28;20027;-20
2022/03/21 06:53:53;;;;;;;52.60;25.80;;;2.80;43.30;;;;;;5115571;28;20368;-20
2022/03/21 06:56:19;;;;;;;86.75;41.72;;;2.90;43.60;;;;;;5115031;28;20031;-20
2022/03/21 06:58:45;;;;;;;30.08;16.92;;;3.10;44.50;;;;;;5114702;28;20031;-20
2022/03/21 07:01:11;;;;;;;26.38;13.02;;;3.20;44.20;;;;;;5115080;28;20027;-20
2022/03/21 07:03:37;;;;;;;21.40;11.13;;;3.40;43.10;;;;;;5115040;28;20403;-20
2022/03/21 07:06:03;;;;;;;21.50;10.52;;;3.50;43.20;;;;;;5114831;28;20022;-19
2022/03/21 07:08:29;;;;;;;24.60;12.50;;;3.70;43.00;;;;;;5114395;28;20032;-19
2022/03/21 07:10:54;;;;;;;18.90;9.77;;;3.90;43.40;;;;;;5114834;28;20388;-19
2022/03/21 07:13:22;;;;;;;20.42;10.95;;;4.00;42.90;;;;;;5114570;28;20100;-19
2022/03/21 07:15:48;;;;;;;19.90;10.07;;;4.20;43.10;;;;;;5114384;28;20030;-20
2022/03/21 07:18:15;;;;;;;14.43;7.93;;;4.40;42.00;;;;;;5114192;28;20523;-20
2022/03/21 07:20:44;;;;;;;13.80;7.30;;;4.60;41.90;;;;;;5114575;28;20027;-20
2022/03/21 07:23:11;;;;;;;11.95;6.18;;;4.80;41.80;;;;;;5114279;28;20032;-19
2022/03/21 07:25:38;;;;;;;24.67;14.82;;;4.90;41.50;;;;;;5114624;28;20048;-20
2022/03/21 07:28:04;;;;;;;18.67;11.32;;;5.20;42.10;;;;;;5114244;28;20505;-20
2022/03/21 07:30:30;;;;;;;23.02;11.60;;;5.40;42.10;;;;;;5113851;28;20072;-20
2022/03/21 07:32:59;;;;;;;13.40;8.30;;;5.70;41.70;;;;;;5114233;28;20020;-20
2022/03/21 07:35:25;;;;;;;13.90;8.05;;;5.90;42.20;;;;;;5114090;28;20088;-19
2022/03/21 07:37:57;;;;;;;20.25;11.52;;;6.10;42.00;;;;;;5113817;28;20030;-19
2022/03/21 07:40:24;;;;;;;18.45;11.55;;;6.40;41.60;;;;;;5114251;28;20026;-19
2022/03/21 07:42:51;;;;;;;18.20;11.35;;;6.60;41.20;;;;;;5113994;28;20486;-20
2022/03/21 07:48:03;;;;;;;17.33;9.90;;;7.00;40.40;;;;;;5114322;28;20026;-19
2022/03/21 07:50:29;;;;;;;18.98;9.73;;;7.30;40.30;;;;;;5113954;28;20475;-20
2022/03/21 07:52:59;;;;;;;15.02;8.52;;;7.50;39.90;;;;;;5113840;28;20019;-20
2022/03/21 07:55:25;;;;;;;15.82;9.23;;;7.70;39.60;;;;;;5114077;28;20080;-19
2022/03/21 07:57:51;;;;;;;13.15;7.78;;;7.90;39.60;;;;;;5112657;28;20061;-19
2022/03/21 08:00:17;;;;;;;13.13;7.63;;;8.10;39.10;;;;;;5113638;28;20509;-20
2022/03/21 08:02:45;;;;;;;12.77;7.68;;;8.30;38.90;;;;;;5113954;28;20023;-19
2022/03/21 08:05:15;;;;;;;12.45;6.97;;;8.60;38.30;;;;;;5114128;28;20020;-19
2022/03/21 08:07:43;;;;;;;14.30;8.52;;;8.80;38.10;;;;;;5114016;28;20098;-19
2022/03/21 08:10:11;;;;;;;14.30;8.75;;;9.00;37.60;;;;;;5113685;28;20110;-19
2022/03/21 08:12:42;;;;;;;12.98;7.80;;;9.20;37.50;;;;;;5113443;28;20442;-19
2022/03/21 08:15:11;;;;;;;15.27;8.73;;;9.40;37.50;;;;;;5113515;28;20023;-19
2022/03/21 08:17:50;;;;;;;14.00;8.80;;;9.50;36.90;;;;;;5113273;28;20048;-19
2022/03/21 08:20:18;;;;;;;11.45;6.90;;;9.80;36.40;;;;;;5113312;28;20027;-20
2022/03/21 08:22:44;;;;;;;15.27;7.25;;;9.90;36.10;;;;;;5113367;28;20065;-19
2022/03/21 08:25:10;;;;;;;12.18;6.13;;;10.20;36.10;;;;;;5113466;28;20122;-19
2022/03/21 08:27:36;;;;;;;13.43;7.28;;;10.40;36.10;;;;;;5113770;28;20028;-19
2022/03/21 08:30:02;;;;;;;16.35;8.93;;;10.60;35.50;;;;;;5113386;28;20372;-20
2022/03/21 08:32:28;;;;;;;12.85;7.65;;;10.90;35.40;;;;;;5112105;28;20574;-20
2022/03/21 08:34:54;;;;;;;12.43;7.57;;;11.10;35.20;;;;;;5113700;28;20111;-19
2022/03/21 08:37:22;;;;;;;13.80;7.80;;;11.40;34.60;;;;;;5113359;28;20032;-20
2022/03/21 08:39:48;;;;;;;14.32;7.78;;;11.60;34.40;;;;;;5113322;28;20035;-20
2022/03/21 08:42:14;;;;;;;10.65;6.60;;;11.90;33.80;;;;;;5113022;28;20085;-20
2022/03/21 08:44:40;;;;;;;9.13;5.32;;;12.20;33.50;;;;;;5113526;28;20034;-19
2022/03/21 08:47:06;;;;;;;12.63;8.15;;;12.40;34.00;;;;;;5113633;28;20103;-19
2022/03/21 08:49:36;;;;;;;12.98;6.85;;;12.70;33.20;;;;;;5114277;28;20472;-19
2022/03/21 08:52:03;;;;;;;9.45;5.95;;;12.90;32.90;;;;;;5117687;28;20032;-19
2022/03/21 08:54:29;;;;;;;11.63;6.97;;;13.20;33.10;;;;;;5117026;28;20107;-19
2022/03/21 08:56:55;;;;;;;10.90;6.53;;;13.40;32.40;;;;;;5117527;28;20030;-19
2022/03/21 08:59:21;;;;;;;12.73;5.88;;;13.50;32.40;;;;;;5117392;28;20062;-19
2022/03/21 09:01:48;;;;;;;17.17;10.32;;;13.80;32.50;;;;;;5117291;28;20059;-19
2022/03/21 09:04:13;;;;;;;8.48;5.45;;;14.00;30.90;;;;;;5116851;28;20032;-20
2022/03/21 09:06:40;;;;;;;8.45;5.45;;;14.20;31.90;;;;;;5117123;28;20094;-19
2022/03/21 09:09:06;;;;;;;11.27;6.15;;;14.40;31.90;;;;;;5116975;28;20028;-19
2022/03/21 09:11:32;;;;;;;12.93;8.10;;;14.70;31.10;;;;;;5117190;28;20031;-19
2022/03/21 09:13:58;;;;;;;16.30;9.18;;;15.00;30.00;;;;;;5116744;28;20027;-19
2022/03/21 09:16:24;;;;;;;11.18;7.03;;;15.20;29.70;;;;;;5116283;28;20080;-19
2022/03/21 09:18:51;;;;;;;13.93;8.50;;;15.40;30.40;;;;;;5116852;28;20106;-19
2022/03/21 09:21:17;;;;;;;11.85;7.55;;;15.60;29.60;;;;;;5116677;28;20045;-19
2022/03/21 09:23:43;;;;;;;14.45;9.77;;;15.90;30.00;;;;;;5116711;27;20032;-19
2022/03/21 09:26:11;;;;;;;12.68;8.45;;;16.10;28.70;;;;;;5116590;28;20055;-19
2022/03/21 09:28:40;;;;;;;14.00;9.00;;;16.30;28.60;;;;;;5117403;28;20030;-19
2022/03/21 09:31:07;;;;;;;13.25;8.50;;;16.40;28.40;;;;;;5116728;28;20520;-19
2022/03/21 09:33:36;;;;;;;11.98;7.78;;;16.70;29.00;;;;;;5116866;28;20027;-19
2022/03/21 09:36:03;;;;;;;12.02;8.23;;;16.90;28.80;;;;;;5116743;28;20034;-19
2022/03/21 09:38:29;;;;;;;16.65;10.13;;;17.20;28.80;;;;;;5116355;28;20027;-19
2022/03/21 09:40:55;;;;;;;11.68;7.63;;;17.40;28.60;;;;;;5116306;28;20032;-19
2022/03/21 09:43:24;;;;;;;11.82;5.88;;;17.70;28.60;;;;;;5116583;28;20023;-19
2022/03/21 09:45:53;;;;;;;14.75;8.35;;;17.90;28.60;;;;;;5116275;28;20035;-19
2022/03/21 09:48:20;;;;;;;10.80;6.13;;;18.20;28.10;;;;;;5116092;28;20011;-19
2022/03/21 09:50:49;;;;;;;9.57;5.88;;;18.50;27.80;;;;;;5116230;28;20479;-19
2022/03/21 09:53:16;;;;;;;13.27;7.20;;;18.80;28.10;;;;;;5116521;28;20034;-19
2022/03/21 09:55:44;;;;;;;10.82;7.25;;;19.00;27.70;;;;;;5116104;28;20024;-19
2022/03/21 09:58:10;;;;;;;15.43;9.60;;;19.40;27.70;;;;;;5116349;28;20095;-19
2022/03/21 10:00:42;;;;;;;12.77;7.75;;;19.60;27.00;;;;;;5115361;28;20027;-19
2022/03/21 10:03:08;;;;;;;11.75;7.43;;;19.90;27.00;;;;;;5116250;28;20028;-19
2022/03/21 10:05:38;;;;;;;13.50;8.75;;;20.00;27.00;;;;;;5116218;27;20027;-19
2022/03/21 10:08:23;;;;;;;13.68;8.30;;;20.20;26.60;;;;;;5115868;27;20031;-19
2022/03/21 10:10:58;;;;;;;14.18;9.13;;;20.40;25.80;;;;;;5116477;28;20051;-19
2022/03/21 10:13:27;;;;;;;12.90;8.43;;;20.50;25.70;;;;;;5116029;28;20032;-19
2022/03/21 10:16:18;;;;;;;17.70;11.52;;;20.70;26.30;;;;;;5115583;28;20028;-19
2022/03/21 10:18:53;;;;;;;13.80;9.20;;;20.80;24.10;;;;;;5115657;28;20414;-19
2022/03/21 10:21:24;;;;;;;11.73;8.52;;;20.90;24.90;;;;;;5115279;28;20040;-19
2022/03/21 10:24:07;;;;;;;14.73;9.68;;;21.00;25.00;;;;;;5115981;28;20052;-19
2022/03/21 10:26:44;;;;;;;12.93;8.17;;;21.10;23.50;;;;;;5115639;28;20452;-19
2022/03/21 10:29:12;;;;;;;12.15;8.25;;;21.30;24.90;;;;;;5115756;28;20098;-19
2022/03/21 10:31:41;;;;;;;16.33;10.13;;;21.40;25.40;;;;;;5115293;28;20103;-19
2022/03/21 10:34:15;;;;;;;13.43;8.70;;;21.40;24.80;;;;;;5115609;28;20084;-19
2022/03/21 10:37:07;;;;;;;13.73;8.65;;;21.50;24.80;;;;;;5115339;28;20020;-19
2022/03/21 10:39:36;;;;;;;17.02;10.70;;;21.70;21.70;;;;;;5115567;28;20031;-19
2022/03/21 10:42:04;;;;;;;12.57;8.77;;;21.80;24.10;;;;;;5115179;28;20376;-19
2022/03/21 10:44:32;;;;;;;16.20;9.80;;;21.90;24.10;;;;;;5114906;28;20015;-19
2022/03/21 10:47:03;;;;;;;12.40;8.35;;;22.00;24.40;;;;;;5115070;28;20084;-19
2022/03/21 10:49:38;;;;;;;11.43;7.78;;;22.10;23.90;;;;;;5115328;28;20053;-19
2022/03/21 10:52:06;;;;;;;12.38;8.43;;;22.20;24.00;;;;;;5115263;28;20427;-19
2022/03/21 10:54:49;;;;;;;12.30;7.90;;;22.40;23.90;;;;;;5115078;28;20059;-19
2022/03/21 10:57:31;;;;;;;12.40;8.23;;;22.50;22.20;;;;;;5114857;28;20035;-19
2022/03/21 11:00:20;;;;;;;8.52;6.25;;;22.70;23.50;;;;;;5114759;28;20471;-19
2022/03/21 11:02:49;;;;;;;12.63;8.10;;;22.90;22.70;;;;;;5115564;28;20035;-19
2022/03/21 11:05:17;;;;;;;14.05;8.18;;;23.20;23.20;;;;;;5114770;28;20053;-19
2022/03/21 11:07:47;;;;;;;9.98;6.82;;;23.40;23.10;;;;;;5114651;28;20479;-19
2022/03/21 11:10:14;;;;;;;9.80;6.57;;;23.50;23.00;;;;;;5114505;28;20115;-20
2022/03/21 11:12:44;;;;;;;8.98;6.07;;;23.80;23.20;;;;;;5113833;28;20023;-19
2022/03/21 11:15:12;;;;;;;10.63;6.18;;;23.90;23.10;;;;;;5114820;28;20024;-19
2022/03/21 11:17:40;;;;;;;12.52;7.93;;;24.20;22.70;;;;;;5114486;28;20062;-18
2022/03/21 11:20:08;;;;;;;12.63;8.20;;;24.30;22.40;;;;;;5113214;28;20513;-19
2022/03/21 11:22:36;;;;;;;9.32;6.50;;;24.50;22.10;;;;;;5114322;28;20042;-19
2022/03/21 11:25:05;;;;;;;10.98;8.10;;;24.70;22.20;;;;;;5114744;28;20570;-19
2022/03/21 11:27:40;;;;;;;11.13;6.93;;;24.90;21.90;;;;;;5114980;28;20023;-19
2022/03/21 11:30:21;;;;;;;12.32;7.95;;;25.00;21.80;;;;;;5114255;28;20432;-18
2022/03/21 11:33:07;;;;;;;12.55;7.90;;;25.20;21.50;;;;;;5114178;28;20446;-19
2022/03/21 11:35:34;;;;;;;11.15;7.35;;;25.30;20.60;;;;;;5114265;28;20472;-19
2022/03/21 11:38:33;;;;;;;11.73;8.60;;;25.40;21.60;;;;;;5114193;28;20024;-19
2022/03/21 11:41:18;;;;;;;11.25;8.05;;;25.50;20.70;;;;;;5114027;28;20019;-19
2022/03/21 11:43:46;;;;;;;13.30;8.13;;;25.80;19.40;;;;;;5114353;28;20122;-19
2022/03/21 11:46:27;;;;;;;11.93;7.90;;;25.90;21.30;;;;;;5114043;28;20028;-22
2022/03/21 11:49:05;;;;;;;15.07;10.82;;;26.10;21.00;;;;;;5114016;28;20032;-19
2022/03/21 11:51:38;;;;;;;13.98;10.02;;;26.30;20.10;;;;;;5113984;28;20028;-19
2022/03/21 11:54:15;;;;;;;12.45;8.32;;;26.40;20.70;;;;;;5113895;28;20372;-19
2022/03/21 11:56:41;;;;;;;10.20;8.07;;;26.50;20.70;;;;;;5114418;28;20023;-19
2022/03/21 11:59:07;;;;;;;8.90;6.82;;;26.70;20.80;;;;;;5114015;28;20028;-19
2022/03/21 12:01:34;;;;;;;14.68;10.10;;;26.70;20.50;;;;;;5113706;28;20488;-19
2022/03/21 12:04:24;;;;;;;11.57;7.22;;;26.80;20.40;;;;;;5114045;28;20084;-19
2022/03/21 12:07:13;;;;;;;11.23;8.10;;;26.90;17.90;;;;;;5113707;28;20031;-18
2022/03/21 12:09:44;;;;;;;11.35;8.15;;;26.90;18.40;;;;;;5107071;28;20023;-19
2022/03/21 12:12:12;;;;;;;11.80;7.75;;;27.00;19.60;;;;;;5114085;28;20077;-19
2022/03/21 12:14:44;;;;;;;10.48;7.00;;;27.10;20.00;;;;;;5113838;28;20495;-19
2022/03/21 12:17:10;;;;;;;11.05;8.10;;;27.20;20.30;;;;;;5113546;28;20059;-18
2022/03/21 12:19:48;;;;;;;11.93;8.50;;;27.40;19.70;;;;;;5113506;28;20023;-19
2022/03/21 12:25:01;;;;;;;9.98;6.50;;;27.40;18.90;;;;;;5119228;28;20042;-18
2022/03/21 12:27:47;;;;;;;10.75;7.80;;;27.70;20.10;;;;;;5119090;28;20502;-19
2022/03/21 12:30:23;;;;;;;10.00;7.32;;;27.90;17.40;;;;;;5120142;27;20032;-19
2022/03/21 12:33:08;;;;;;;10.35;7.43;;;28.00;18.00;;;;;;5120253;27;20361;-18
2022/03/21 12:35:45;;;;;;;10.93;7.13;;;28.10;19.40;;;;;;5120581;28;20391;-18
2022/03/21 12:38:34;;;;;;;9.75;7.00;;;28.10;19.30;;;;;;5120400;27;20031;-19
2022/03/21 12:41:03;;;;;;;9.48;6.85;;;28.30;18.80;;;;;;5120479;27;20106;-19
2022/03/21 12:43:51;;;;;;;9.80;6.97;;;28.50;19.40;;;;;;5120424;27;20088;-19
2022/03/21 12:46:19;;;;;;;9.25;7.10;;;28.70;17.10;;;;;;5119868;27;20023;-19
2022/03/21 12:48:54;;;;;;;11.45;6.07;;;28.80;19.20;;;;;;5120114;28;20020;-19
2022/03/21 12:51:31;;;;;;;8.85;5.63;;;28.90;19.20;;;;;;5120485;27;20380;-18
2022/03/21 12:54:01;;;;;;;8.45;6.70;;;29.10;19.20;;;;;;5120426;27;20015;-18
2022/03/21 12:56:28;;;;;;;10.20;6.50;;;29.30;19.10;;;;;;5119952;27;20518;-19
2022/03/21 12:59:04;;;;;;;9.07;5.65;;;29.40;19.00;;;;;;5120345;27;20024;-18
2022/03/21 13:01:32;;;;;;;10.15;7.40;;;29.60;18.90;;;;;;5120257;27;20055;-18
2022/03/21 13:12:36;;;;;;;8.02;5.95;;;30.60;18.90;;;;;;5120280;28;20448;-18
2022/03/21 13:15:08;;;;;;;9.30;6.85;;;30.80;18.40;;;;;;5120085;27;20038;-19
2022/03/21 13:17:54;;;;;;;8.88;7.00;;;30.90;17.70;;;;;;5119667;27;20055;-19
2022/03/21 13:20:25;;;;;;;8.30;6.53;;;30.90;18.00;;;;;;5119619;27;20118;-18
2022/03/21 13:22:52;;;;;;;13.32;7.00;;;30.90;18.30;;;;;;5120095;27;20032;-19
2022/03/21 13:25:26;;;;;;;10.68;7.45;;;30.80;18.10;;;;;;5120051;27;20394;-19
2022/03/21 13:28:11;;;;;;;10.60;7.53;;;30.70;18.00;;;;;;5120401;27;20069;-19